sensor_id;sensor_type;location;lat;lon;timestamp;P1;durP1;ratioP1;P2;durP2;ratioP2
65656;SDS011;57397;50.096;14.404;2023-02-28T00:01:08;6.70;;;3.83;;
65656;SDS011;57397;50.096;14.404;2023-02-28T00:03:33;7.47;;;4.18;;
65656;SDS011;57397;50.096;14.404;2023-02-28T00:06:05;7.75;;;4.25;;
65656;SDS011;57397;50.096;14.404;2023-02-28T00:08:34;8.73;;;3.80;;
65656;SDS011;57397;50.096;14.404;2023-02-28T00:11:03;7.68;;;3.85;;
65656;SDS011;57397;50.096;14.404;2023-02-28T00:13:30;6.57;;;3.80;;
65656;SDS011;57397;50.096;14.404;2023-02-28T00:15:59;6.75;;;4.07;;
65656;SDS011;57397;50.096;14.404;2023-02-28T00:18:26;7.22;;;4.07;;
65656;SDS011;57397;50.096;14.404;2023-02-28T00:20:52;5.35;;;3.70;;
65656;SDS011;57397;50.096;14.404;2023-02-28T00:23:17;6.20;;;3.92;;
65656;SDS011;57397;50.096;14.404;2023-02-28T00:25:43;7.10;;;4.07;;
65656;SDS011;57397;50.096;14.404;2023-02-28T00:28:08;6.13;;;3.78;;
65656;SDS011;57397;50.096;14.404;2023-02-28T00:30:34;6.43;;;3.92;;
65656;SDS011;57397;50.096;14.404;2023-02-28T00:32:59;8.25;;;4.20;;
65656;SDS011;57397;50.096;14.404;2023-02-28T00:35:25;6.28;;;3.78;;
65656;SDS011;57397;50.096;14.404;2023-02-28T00:37:50;7.20;;;4.00;;
65656;SDS011;57397;50.096;14.404;2023-02-28T00:40:16;5.95;;;3.70;;
65656;SDS011;57397;50.096;14.404;2023-02-28T00:42:41;7.25;;;3.92;;
65656;SDS011;57397;50.096;14.404;2023-02-28T00:45:07;6.32;;;3.95;;
65656;SDS011;57397;50.096;14.404;2023-02-28T00:47:33;6.53;;;4.00;;
65656;SDS011;57397;50.096;14.404;2023-02-28T00:49:59;5.80;;;3.90;;
65656;SDS011;57397;50.096;14.404;2023-02-28T00:52:25;6.65;;;3.65;;
65656;SDS011;57397;50.096;14.404;2023-02-28T00:54:50;7.25;;;3.85;;
65656;SDS011;57397;50.096;14.404;2023-02-28T00:57:16;6.70;;;3.88;;
65656;SDS011;57397;50.096;14.404;2023-02-28T00:59:41;6.43;;;3.88;;
65656;SDS011;57397;50.096;14.404;2023-02-28T01:02:07;6.72;;;3.85;;
65656;SDS011;57397;50.096;14.404;2023-02-28T01:04:32;7.20;;;3.95;;
65656;SDS011;57397;50.096;14.404;2023-02-28T01:06:58;6.15;;;3.70;;
65656;SDS011;57397;50.096;14.404;2023-02-28T01:09:23;5.20;;;3.28;;
65656;SDS011;57397;50.096;14.404;2023-02-28T01:11:49;6.07;;;3.92;;
65656;SDS011;57397;50.096;14.404;2023-02-28T01:14:15;5.70;;;3.47;;
65656;SDS011;57397;50.096;14.404;2023-02-28T01:16:41;5.82;;;3.70;;
65656;SDS011;57397;50.096;14.404;2023-02-28T01:19:07;6.25;;;3.53;;
65656;SDS011;57397;50.096;14.404;2023-02-28T01:21:32;5.72;;;3.75;;
65656;SDS011;57397;50.096;14.404;2023-02-28T01:23:59;5.40;;;3.40;;
65656;SDS011;57397;50.096;14.404;2023-02-28T01:26:25;5.25;;;3.67;;
65656;SDS011;57397;50.096;14.404;2023-02-28T01:28:51;5.82;;;3.85;;
65656;SDS011;57397;50.096;14.404;2023-02-28T01:31:17;6.43;;;4.07;;
65656;SDS011;57397;50.096;14.404;2023-02-28T01:33:43;5.60;;;3.53;;
65656;SDS011;57397;50.096;14.404;2023-02-28T01:36:10;8.52;;;4.18;;
65656;SDS011;57397;50.096;14.404;2023-02-28T01:38:37;6.30;;;3.65;;
65656;SDS011;57397;50.096;14.404;2023-02-28T01:41:03;6.00;;;3.45;;
65656;SDS011;57397;50.096;14.404;2023-02-28T01:43:30;5.55;;;3.33;;
65656;SDS011;57397;50.096;14.404;2023-02-28T01:45:57;5.78;;;3.38;;
65656;SDS011;57397;50.096;14.404;2023-02-28T01:48:27;6.00;;;3.70;;
65656;SDS011;57397;50.096;14.404;2023-02-28T01:50:56;6.78;;;3.60;;
65656;SDS011;57397;50.096;14.404;2023-02-28T01:53:28;6.93;;;3.47;;
65656;SDS011;57397;50.096;14.404;2023-02-28T01:56:00;7.23;;;4.17;;
65656;SDS011;57397;50.096;14.404;2023-02-28T01:58:29;7.53;;;3.90;;
65656;SDS011;57397;50.096;14.404;2023-02-28T02:00:55;5.22;;;3.70;;
65656;SDS011;57397;50.096;14.404;2023-02-28T02:03:22;5.93;;;3.40;;
65656;SDS011;57397;50.096;14.404;2023-02-28T02:05:48;6.93;;;3.55;;
65656;SDS011;57397;50.096;14.404;2023-02-28T02:08:21;6.68;;;3.95;;
65656;SDS011;57397;50.096;14.404;2023-02-28T02:10:50;5.63;;;3.55;;
65656;SDS011;57397;50.096;14.404;2023-02-28T02:18:53;6.03;;;3.47;;
65656;SDS011;57397;50.096;14.404;2023-02-28T02:21:28;5.70;;;3.47;;
65656;SDS011;57397;50.096;14.404;2023-02-28T02:35:24;7.03;;;3.40;;
65656;SDS011;57397;50.096;14.404;2023-02-28T02:41:26;5.50;;;3.40;;
65656;SDS011;57397;50.096;14.404;2023-02-28T02:43:36;6.40;;;3.58;;
65656;SDS011;57397;50.096;14.404;2023-02-28T02:46:07;6.95;;;3.30;;
65656;SDS011;57397;50.096;14.404;2023-02-28T02:48:36;5.47;;;3.38;;
65656;SDS011;57397;50.096;14.404;2023-02-28T02:51:05;7.00;;;3.83;;
65656;SDS011;57397;50.096;14.404;2023-02-28T02:54:00;6.05;;;3.40;;
65656;SDS011;57397;50.096;14.404;2023-02-28T02:56:43;5.13;;;3.35;;
65656;SDS011;57397;50.096;14.404;2023-02-28T02:59:11;6.45;;;3.40;;
65656;SDS011;57397;50.096;14.404;2023-02-28T03:01:38;4.65;;;3.05;;
65656;SDS011;57397;50.096;14.404;2023-02-28T03:04:08;4.90;;;3.15;;
65656;SDS011;57397;50.096;14.404;2023-02-28T03:06:36;6.53;;;3.50;;
65656;SDS011;57397;50.096;14.404;2023-02-28T03:09:02;6.28;;;3.50;;
65656;SDS011;57397;50.096;14.404;2023-02-28T03:11:29;5.85;;;3.20;;
65656;SDS011;57397;50.096;14.404;2023-02-28T03:16:46;6.53;;;3.35;;
65656;SDS011;57397;50.096;14.404;2023-02-28T03:22:10;6.43;;;3.25;;
65656;SDS011;57397;50.096;14.404;2023-02-28T03:33:07;4.95;;;3.10;;
65656;SDS011;57397;50.096;14.404;2023-02-28T03:35:51;4.78;;;3.20;;
65656;SDS011;57397;50.096;14.404;2023-02-28T03:41:19;5.35;;;3.10;;
65656;SDS011;57397;50.096;14.404;2023-02-28T03:43:50;5.40;;;3.15;;
65656;SDS011;57397;50.096;14.404;2023-02-28T03:46:20;5.72;;;3.35;;
65656;SDS011;57397;50.096;14.404;2023-02-28T03:49:00;4.47;;;3.13;;
65656;SDS011;57397;50.096;14.404;2023-02-28T03:51:29;4.75;;;2.88;;
65656;SDS011;57397;50.096;14.404;2023-02-28T03:53:59;5.13;;;3.20;;
65656;SDS011;57397;50.096;14.404;2023-02-28T03:56:40;6.00;;;3.58;;
65656;SDS011;57397;50.096;14.404;2023-02-28T03:59:13;4.72;;;3.08;;
65656;SDS011;57397;50.096;14.404;2023-02-28T04:04:09;6.93;;;3.88;;
65656;SDS011;57397;50.096;14.404;2023-02-28T04:06:36;5.38;;;3.13;;
65656;SDS011;57397;50.096;14.404;2023-02-28T04:09:03;5.45;;;2.78;;
65656;SDS011;57397;50.096;14.404;2023-02-28T04:11:38;4.35;;;2.83;;
65656;SDS011;57397;50.096;14.404;2023-02-28T04:14:08;5.20;;;3.28;;
65656;SDS011;57397;50.096;14.404;2023-02-28T04:16:34;4.95;;;3.10;;
65656;SDS011;57397;50.096;14.404;2023-02-28T04:19:05;4.25;;;2.90;;
65656;SDS011;57397;50.096;14.404;2023-02-28T04:21:33;4.93;;;2.85;;
65656;SDS011;57397;50.096;14.404;2023-02-28T04:24:01;4.65;;;3.28;;
65656;SDS011;57397;50.096;14.404;2023-02-28T04:26:30;4.80;;;3.22;;
65656;SDS011;57397;50.096;14.404;2023-02-28T04:28:57;6.03;;;3.38;;
65656;SDS011;57397;50.096;14.404;2023-02-28T04:31:23;5.15;;;3.00;;
65656;SDS011;57397;50.096;14.404;2023-02-28T04:33:48;5.65;;;3.20;;
65656;SDS011;57397;50.096;14.404;2023-02-28T04:36:14;5.72;;;2.88;;
65656;SDS011;57397;50.096;14.404;2023-02-28T04:38:39;5.57;;;3.13;;
65656;SDS011;57397;50.096;14.404;2023-02-28T04:41:05;5.45;;;3.03;;
65656;SDS011;57397;50.096;14.404;2023-02-28T04:43:31;4.85;;;2.90;;
65656;SDS011;57397;50.096;14.404;2023-02-28T04:45:57;4.45;;;2.97;;
65656;SDS011;57397;50.096;14.404;2023-02-28T04:48:24;4.30;;;2.70;;
65656;SDS011;57397;50.096;14.404;2023-02-28T04:50:52;4.38;;;2.92;;
65656;SDS011;57397;50.096;14.404;2023-02-28T04:53:17;5.13;;;3.17;;
65656;SDS011;57397;50.096;14.404;2023-02-28T04:55:43;5.20;;;3.00;;
65656;SDS011;57397;50.096;14.404;2023-02-28T04:58:09;5.50;;;3.45;;
65656;SDS011;57397;50.096;14.404;2023-02-28T05:00:35;6.95;;;3.63;;
65656;SDS011;57397;50.096;14.404;2023-02-28T05:03:00;5.30;;;3.35;;
65656;SDS011;57397;50.096;14.404;2023-02-28T05:05:26;4.60;;;3.00;;
65656;SDS011;57397;50.096;14.404;2023-02-28T05:07:51;4.50;;;2.80;;
65656;SDS011;57397;50.096;14.404;2023-02-28T05:10:18;4.93;;;3.28;;
65656;SDS011;57397;50.096;14.404;2023-02-28T05:12:44;4.40;;;2.83;;
65656;SDS011;57397;50.096;14.404;2023-02-28T05:15:12;6.18;;;3.55;;
65656;SDS011;57397;50.096;14.404;2023-02-28T05:17:38;4.95;;;3.17;;
65656;SDS011;57397;50.096;14.404;2023-02-28T05:20:03;7.95;;;3.00;;
65656;SDS011;57397;50.096;14.404;2023-02-28T05:22:30;4.28;;;2.92;;
65656;SDS011;57397;50.096;14.404;2023-02-28T05:24:55;5.05;;;3.08;;
65656;SDS011;57397;50.096;14.404;2023-02-28T05:27:21;5.63;;;2.97;;
65656;SDS011;57397;50.096;14.404;2023-02-28T05:29:46;6.55;;;3.53;;
65656;SDS011;57397;50.096;14.404;2023-02-28T05:32:12;4.82;;;3.10;;
65656;SDS011;57397;50.096;14.404;2023-02-28T05:34:38;4.90;;;3.20;;
65656;SDS011;57397;50.096;14.404;2023-02-28T05:37:04;4.75;;;3.03;;
65656;SDS011;57397;50.096;14.404;2023-02-28T05:39:31;6.25;;;3.00;;
65656;SDS011;57397;50.096;14.404;2023-02-28T05:41:56;4.45;;;2.97;;
65656;SDS011;57397;50.096;14.404;2023-02-28T05:44:22;5.18;;;3.15;;
65656;SDS011;57397;50.096;14.404;2023-02-28T05:46:47;5.13;;;3.22;;
65656;SDS011;57397;50.096;14.404;2023-02-28T05:49:13;4.85;;;2.85;;
65656;SDS011;57397;50.096;14.404;2023-02-28T05:51:38;5.68;;;3.00;;
65656;SDS011;57397;50.096;14.404;2023-02-28T05:54:05;3.88;;;2.95;;
65656;SDS011;57397;50.096;14.404;2023-02-28T05:56:31;5.35;;;3.33;;
65656;SDS011;57397;50.096;14.404;2023-02-28T05:58:57;5.75;;;3.50;;
65656;SDS011;57397;50.096;14.404;2023-02-28T06:01:41;6.32;;;3.30;;
65656;SDS011;57397;50.096;14.404;2023-02-28T06:04:13;5.47;;;3.47;;
65656;SDS011;57397;50.096;14.404;2023-02-28T06:06:43;5.75;;;3.35;;
65656;SDS011;57397;50.096;14.404;2023-02-28T06:09:10;5.63;;;3.30;;
65656;SDS011;57397;50.096;14.404;2023-02-28T06:11:36;5.50;;;3.30;;
65656;SDS011;57397;50.096;14.404;2023-02-28T06:14:02;6.07;;;3.70;;
65656;SDS011;57397;50.096;14.404;2023-02-28T06:16:29;5.03;;;3.40;;
65656;SDS011;57397;50.096;14.404;2023-02-28T06:18:57;4.90;;;3.17;;
65656;SDS011;57397;50.096;14.404;2023-02-28T06:21:23;5.75;;;3.17;;
65656;SDS011;57397;50.096;14.404;2023-02-28T06:23:49;5.05;;;3.28;;
65656;SDS011;57397;50.096;14.404;2023-02-28T06:26:15;4.82;;;3.20;;
65656;SDS011;57397;50.096;14.404;2023-02-28T06:28:40;5.35;;;3.53;;
65656;SDS011;57397;50.096;14.404;2023-02-28T06:31:07;5.45;;;3.60;;
65656;SDS011;57397;50.096;14.404;2023-02-28T06:33:33;5.70;;;3.63;;
65656;SDS011;57397;50.096;14.404;2023-02-28T06:35:59;7.38;;;3.92;;
65656;SDS011;57397;50.096;14.404;2023-02-28T06:38:25;6.18;;;3.80;;
65656;SDS011;57397;50.096;14.404;2023-02-28T06:40:54;5.85;;;3.65;;
65656;SDS011;57397;50.096;14.404;2023-02-28T06:43:20;7.20;;;3.83;;
65656;SDS011;57397;50.096;14.404;2023-02-28T06:45:46;8.77;;;3.53;;
65656;SDS011;57397;50.096;14.404;2023-02-28T06:48:12;5.75;;;3.63;;
65656;SDS011;57397;50.096;14.404;2023-02-28T06:50:37;6.95;;;3.67;;
65656;SDS011;57397;50.096;14.404;2023-02-28T06:53:03;7.20;;;3.58;;
65656;SDS011;57397;50.096;14.404;2023-02-28T06:55:28;5.90;;;3.55;;
65656;SDS011;57397;50.096;14.404;2023-02-28T06:57:55;5.75;;;3.97;;
65656;SDS011;57397;50.096;14.404;2023-02-28T07:00:21;6.57;;;4.03;;
65656;SDS011;57397;50.096;14.404;2023-02-28T07:02:46;6.22;;;3.60;;
65656;SDS011;57397;50.096;14.404;2023-02-28T07:05:12;6.60;;;3.60;;
65656;SDS011;57397;50.096;14.404;2023-02-28T07:07:38;6.35;;;3.95;;
65656;SDS011;57397;50.096;14.404;2023-02-28T07:10:08;6.78;;;3.67;;
65656;SDS011;57397;50.096;14.404;2023-02-28T07:12:35;7.18;;;3.40;;
65656;SDS011;57397;50.096;14.404;2023-02-28T07:15:01;6.22;;;3.70;;
65656;SDS011;57397;50.096;14.404;2023-02-28T07:17:27;5.65;;;3.60;;
65656;SDS011;57397;50.096;14.404;2023-02-28T07:19:52;5.55;;;3.40;;
65656;SDS011;57397;50.096;14.404;2023-02-28T07:22:18;5.20;;;3.40;;
65656;SDS011;57397;50.096;14.404;2023-02-28T07:24:43;5.43;;;3.40;;
65656;SDS011;57397;50.096;14.404;2023-02-28T07:27:09;5.85;;;3.38;;
65656;SDS011;57397;50.096;14.404;2023-02-28T07:29:34;6.72;;;3.88;;
65656;SDS011;57397;50.096;14.404;2023-02-28T07:32:00;5.85;;;3.40;;
65656;SDS011;57397;50.096;14.404;2023-02-28T07:34:26;5.18;;;3.45;;
65656;SDS011;57397;50.096;14.404;2023-02-28T07:36:54;5.78;;;3.67;;
65656;SDS011;57397;50.096;14.404;2023-02-28T07:39:20;5.57;;;3.70;;
65656;SDS011;57397;50.096;14.404;2023-02-28T07:41:46;5.85;;;3.47;;
65656;SDS011;57397;50.096;14.404;2023-02-28T07:44:12;6.53;;;3.90;;
65656;SDS011;57397;50.096;14.404;2023-02-28T07:46:38;6.32;;;3.70;;
65656;SDS011;57397;50.096;14.404;2023-02-28T07:49:04;6.50;;;3.90;;
65656;SDS011;57397;50.096;14.404;2023-02-28T07:51:30;6.43;;;3.63;;
65656;SDS011;57397;50.096;14.404;2023-02-28T07:53:56;5.57;;;3.38;;
65656;SDS011;57397;50.096;14.404;2023-02-28T07:56:21;7.70;;;3.70;;
65656;SDS011;57397;50.096;14.404;2023-02-28T07:58:47;7.72;;;3.92;;
65656;SDS011;57397;50.096;14.404;2023-02-28T08:01:13;6.22;;;3.40;;
65656;SDS011;57397;50.096;14.404;2023-02-28T08:03:39;5.10;;;3.30;;
65656;SDS011;57397;50.096;14.404;2023-02-28T08:06:05;5.85;;;3.95;;
65656;SDS011;57397;50.096;14.404;2023-02-28T08:08:32;6.57;;;3.80;;
65656;SDS011;57397;50.096;14.404;2023-02-28T08:10:58;5.78;;;3.58;;
65656;SDS011;57397;50.096;14.404;2023-02-28T08:13:25;5.93;;;3.20;;
65656;SDS011;57397;50.096;14.404;2023-02-28T08:15:55;6.22;;;3.70;;
65656;SDS011;57397;50.096;14.404;2023-02-28T08:18:21;6.03;;;3.63;;
65656;SDS011;57397;50.096;14.404;2023-02-28T08:20:47;6.32;;;4.13;;
65656;SDS011;57397;50.096;14.404;2023-02-28T08:23:13;5.20;;;3.55;;
65656;SDS011;57397;50.096;14.404;2023-02-28T08:25:38;6.18;;;3.83;;
65656;SDS011;57397;50.096;14.404;2023-02-28T08:28:06;6.82;;;3.90;;
65656;SDS011;57397;50.096;14.404;2023-02-28T08:30:31;6.15;;;3.25;;
65656;SDS011;57397;50.096;14.404;2023-02-28T08:32:57;6.20;;;3.58;;
65656;SDS011;57397;50.096;14.404;2023-02-28T08:35:22;6.55;;;3.80;;
65656;SDS011;57397;50.096;14.404;2023-02-28T08:37:48;5.63;;;3.58;;
65656;SDS011;57397;50.096;14.404;2023-02-28T08:40:14;4.97;;;3.60;;
65656;SDS011;57397;50.096;14.404;2023-02-28T08:42:45;6.72;;;3.92;;
65656;SDS011;57397;50.096;14.404;2023-02-28T08:45:12;6.20;;;3.50;;
65656;SDS011;57397;50.096;14.404;2023-02-28T08:47:38;6.00;;;3.72;;
65656;SDS011;57397;50.096;14.404;2023-02-28T08:50:07;6.40;;;3.80;;
65656;SDS011;57397;50.096;14.404;2023-02-28T08:52:33;6.10;;;3.58;;
65656;SDS011;57397;50.096;14.404;2023-02-28T08:54:59;6.00;;;3.80;;
65656;SDS011;57397;50.096;14.404;2023-02-28T08:57:24;5.75;;;3.58;;
65656;SDS011;57397;50.096;14.404;2023-02-28T08:59:51;6.97;;;4.07;;
65656;SDS011;57397;50.096;14.404;2023-02-28T09:02:17;5.97;;;3.60;;
65656;SDS011;57397;50.096;14.404;2023-02-28T09:04:43;5.70;;;3.45;;
65656;SDS011;57397;50.096;14.404;2023-02-28T09:07:10;6.60;;;3.78;;
65656;SDS011;57397;50.096;14.404;2023-02-28T09:09:36;5.72;;;3.50;;
65656;SDS011;57397;50.096;14.404;2023-02-28T09:12:02;5.25;;;3.33;;
65656;SDS011;57397;50.096;14.404;2023-02-28T09:14:28;6.00;;;3.53;;
65656;SDS011;57397;50.096;14.404;2023-02-28T09:16:53;6.40;;;4.00;;
65656;SDS011;57397;50.096;14.404;2023-02-28T09:19:19;6.35;;;3.85;;
65656;SDS011;57397;50.096;14.404;2023-02-28T09:21:45;6.22;;;3.80;;
65656;SDS011;57397;50.096;14.404;2023-02-28T09:24:11;7.63;;;4.03;;
65656;SDS011;57397;50.096;14.404;2023-02-28T09:26:39;5.82;;;3.50;;
65656;SDS011;57397;50.096;14.404;2023-02-28T09:29:05;6.80;;;3.80;;
65656;SDS011;57397;50.096;14.404;2023-02-28T09:31:31;5.38;;;3.78;;
65656;SDS011;57397;50.096;14.404;2023-02-28T09:33:58;6.75;;;4.07;;
65656;SDS011;57397;50.096;14.404;2023-02-28T09:36:24;5.82;;;3.95;;
65656;SDS011;57397;50.096;14.404;2023-02-28T09:38:53;5.80;;;3.75;;
65656;SDS011;57397;50.096;14.404;2023-02-28T09:41:22;5.32;;;3.78;;
65656;SDS011;57397;50.096;14.404;2023-02-28T09:43:52;6.25;;;4.03;;
65656;SDS011;57397;50.096;14.404;2023-02-28T09:48:50;6.25;;;4.00;;
65656;SDS011;57397;50.096;14.404;2023-02-28T09:51:27;7.50;;;4.00;;
65656;SDS011;57397;50.096;14.404;2023-02-28T09:53:55;5.95;;;3.92;;
65656;SDS011;57397;50.096;14.404;2023-02-28T09:56:22;5.70;;;3.70;;
65656;SDS011;57397;50.096;14.404;2023-02-28T10:04:33;6.60;;;3.70;;
65656;SDS011;57397;50.096;14.404;2023-02-28T10:07:05;6.47;;;3.75;;
65656;SDS011;57397;50.096;14.404;2023-02-28T10:09:53;6.50;;;3.50;;
65656;SDS011;57397;50.096;14.404;2023-02-28T10:12:20;6.85;;;3.92;;
65656;SDS011;57397;50.096;14.404;2023-02-28T10:14:47;5.65;;;3.72;;
65656;SDS011;57397;50.096;14.404;2023-02-28T10:17:16;6.18;;;3.83;;
65656;SDS011;57397;50.096;14.404;2023-02-28T10:25:27;5.90;;;3.58;;
65656;SDS011;57397;50.096;14.404;2023-02-28T10:27:53;6.75;;;3.97;;
65656;SDS011;57397;50.096;14.404;2023-02-28T10:30:44;6.25;;;3.72;;
65656;SDS011;57397;50.096;14.404;2023-02-28T10:33:17;5.80;;;3.67;;
65656;SDS011;57397;50.096;14.404;2023-02-28T10:35:48;4.90;;;3.53;;
65656;SDS011;57397;50.096;14.404;2023-02-28T10:38:15;7.68;;;3.95;;
65656;SDS011;57397;50.096;14.404;2023-02-28T10:40:42;5.53;;;3.35;;
65656;SDS011;57397;50.096;14.404;2023-02-28T10:45:40;6.15;;;3.50;;
65656;SDS011;57397;50.096;14.404;2023-02-28T10:48:50;6.03;;;3.92;;
65656;SDS011;57397;50.096;14.404;2023-02-28T10:51:25;7.15;;;3.92;;
65656;SDS011;57397;50.096;14.404;2023-02-28T10:54:00;6.43;;;3.85;;
65656;SDS011;57397;50.096;14.404;2023-02-28T10:56:25;6.93;;;3.70;;
65656;SDS011;57397;50.096;14.404;2023-02-28T11:03:59;5.28;;;3.78;;
65656;SDS011;57397;50.096;14.404;2023-02-28T11:06:34;6.72;;;3.90;;
65656;SDS011;57397;50.096;14.404;2023-02-28T11:11:30;5.65;;;3.60;;
65656;SDS011;57397;50.096;14.404;2023-02-28T11:13:57;7.50;;;3.78;;
65656;SDS011;57397;50.096;14.404;2023-02-28T11:16:38;5.65;;;3.67;;
65656;SDS011;57397;50.096;14.404;2023-02-28T11:19:06;5.60;;;3.50;;
65656;SDS011;57397;50.096;14.404;2023-02-28T11:22:01;6.15;;;3.50;;
65656;SDS011;57397;50.096;14.404;2023-02-28T11:24:28;6.38;;;3.75;;
65656;SDS011;57397;50.096;14.404;2023-02-28T11:26:56;6.13;;;3.50;;
65656;SDS011;57397;50.096;14.404;2023-02-28T11:29:26;6.15;;;3.70;;
65656;SDS011;57397;50.096;14.404;2023-02-28T11:32:10;6.38;;;4.10;;
65656;SDS011;57397;50.096;14.404;2023-02-28T11:34:38;6.20;;;3.67;;
65656;SDS011;57397;50.096;14.404;2023-02-28T11:37:05;6.50;;;3.92;;
65656;SDS011;57397;50.096;14.404;2023-02-28T11:39:35;7.72;;;3.95;;
65656;SDS011;57397;50.096;14.404;2023-02-28T11:42:11;6.30;;;3.90;;
65656;SDS011;57397;50.096;14.404;2023-02-28T11:53:18;5.60;;;3.42;;
65656;SDS011;57397;50.096;14.404;2023-02-28T11:58:26;6.95;;;3.80;;
65656;SDS011;57397;50.096;14.404;2023-02-28T12:12:01;5.78;;;3.40;;
65656;SDS011;57397;50.096;14.404;2023-02-28T12:20:21;7.55;;;3.85;;
65656;SDS011;57397;50.096;14.404;2023-02-28T12:28:21;4.53;;;3.22;;
65656;SDS011;57397;50.096;14.404;2023-02-28T12:30:54;6.00;;;3.53;;
65656;SDS011;57397;50.096;14.404;2023-02-28T12:33:25;6.22;;;4.10;;
65656;SDS011;57397;50.096;14.404;2023-02-28T12:35:55;6.10;;;4.03;;
65656;SDS011;57397;50.096;14.404;2023-02-28T12:38:22;6.65;;;3.88;;
65656;SDS011;57397;50.096;14.404;2023-02-28T12:43:30;6.63;;;3.72;;
65656;SDS011;57397;50.096;14.404;2023-02-28T12:45:59;5.70;;;3.80;;
65656;SDS011;57397;50.096;14.404;2023-02-28T12:48:31;6.50;;;3.83;;
65656;SDS011;57397;50.096;14.404;2023-02-28T12:50:59;5.25;;;3.53;;
65656;SDS011;57397;50.096;14.404;2023-02-28T12:53:31;6.70;;;3.83;;
65656;SDS011;57397;50.096;14.404;2023-02-28T12:56:14;6.00;;;4.07;;
65656;SDS011;57397;50.096;14.404;2023-02-28T12:58:51;7.45;;;4.00;;
65656;SDS011;57397;50.096;14.404;2023-02-28T13:12:13;6.88;;;4.00;;
65656;SDS011;57397;50.096;14.404;2023-02-28T13:14:39;6.50;;;3.88;;
65656;SDS011;57397;50.096;14.404;2023-02-28T13:19:37;6.30;;;4.03;;
65656;SDS011;57397;50.096;14.404;2023-02-28T13:22:36;6.50;;;3.95;;
65656;SDS011;57397;50.096;14.404;2023-02-28T13:27:47;5.97;;;3.95;;
65656;SDS011;57397;50.096;14.404;2023-02-28T13:31:05;6.93;;;4.05;;
65656;SDS011;57397;50.096;14.404;2023-02-28T13:33:25;7.43;;;4.20;;
65656;SDS011;57397;50.096;14.404;2023-02-28T13:38:51;7.60;;;4.25;;
65656;SDS011;57397;50.096;14.404;2023-02-28T13:47:25;6.82;;;4.43;;
65656;SDS011;57397;50.096;14.404;2023-02-28T13:49:28;4.93;;;3.67;;
65656;SDS011;57397;50.096;14.404;2023-02-28T13:52:02;5.88;;;4.10;;
65656;SDS011;57397;50.096;14.404;2023-02-28T14:05:18;5.97;;;4.13;;
65656;SDS011;57397;50.096;14.404;2023-02-28T14:07:50;6.78;;;4.10;;
65656;SDS011;57397;50.096;14.404;2023-02-28T14:10:26;7.55;;;4.28;;
65656;SDS011;57397;50.096;14.404;2023-02-28T14:12:58;6.65;;;4.45;;
65656;SDS011;57397;50.096;14.404;2023-02-28T14:18:10;7.18;;;4.60;;
65656;SDS011;57397;50.096;14.404;2023-02-28T14:20:41;8.95;;;4.63;;
65656;SDS011;57397;50.096;14.404;2023-02-28T14:31:53;6.57;;;3.85;;
65656;SDS011;57397;50.096;14.404;2023-02-28T14:37:09;7.25;;;4.15;;
65656;SDS011;57397;50.096;14.404;2023-02-28T14:39:40;7.53;;;4.15;;
65656;SDS011;57397;50.096;14.404;2023-02-28T14:42:24;7.28;;;4.70;;
65656;SDS011;57397;50.096;14.404;2023-02-28T14:44:55;7.15;;;4.43;;
65656;SDS011;57397;50.096;14.404;2023-02-28T14:47:21;7.65;;;4.47;;
65656;SDS011;57397;50.096;14.404;2023-02-28T14:49:49;7.32;;;4.35;;
65656;SDS011;57397;50.096;14.404;2023-02-28T14:52:19;8.50;;;4.97;;
65656;SDS011;57397;50.096;14.404;2023-02-28T14:54:46;8.10;;;4.80;;
65656;SDS011;57397;50.096;14.404;2023-02-28T14:57:22;8.60;;;5.35;;
65656;SDS011;57397;50.096;14.404;2023-02-28T14:59:56;7.55;;;4.82;;
65656;SDS011;57397;50.096;14.404;2023-02-28T15:02:51;7.72;;;4.93;;
65656;SDS011;57397;50.096;14.404;2023-02-28T15:05:33;7.53;;;4.57;;
65656;SDS011;57397;50.096;14.404;2023-02-28T15:08:04;7.03;;;4.60;;
65656;SDS011;57397;50.096;14.404;2023-02-28T15:10:29;7.75;;;4.97;;
65656;SDS011;57397;50.096;14.404;2023-02-28T15:15:33;8.50;;;5.18;;
65656;SDS011;57397;50.096;14.404;2023-02-28T15:18:06;6.88;;;5.05;;
65656;SDS011;57397;50.096;14.404;2023-02-28T15:20:38;10.75;;;4.95;;
65656;SDS011;57397;50.096;14.404;2023-02-28T15:23:04;7.47;;;4.70;;
65656;SDS011;57397;50.096;14.404;2023-02-28T15:25:30;7.63;;;5.05;;
65656;SDS011;57397;50.096;14.404;2023-02-28T15:27:56;8.20;;;5.07;;
65656;SDS011;57397;50.096;14.404;2023-02-28T15:30:26;7.93;;;5.15;;
65656;SDS011;57397;50.096;14.404;2023-02-28T15:35:45;9.02;;;5.20;;
65656;SDS011;57397;50.096;14.404;2023-02-28T15:40:49;9.85;;;5.20;;
65656;SDS011;57397;50.096;14.404;2023-02-28T15:43:31;8.77;;;5.50;;
65656;SDS011;57397;50.096;14.404;2023-02-28T15:46:04;8.98;;;5.32;;
65656;SDS011;57397;50.096;14.404;2023-02-28T15:48:44;7.97;;;5.15;;
65656;SDS011;57397;50.096;14.404;2023-02-28T15:51:18;7.88;;;4.90;;
65656;SDS011;57397;50.096;14.404;2023-02-28T15:56:31;9.15;;;5.57;;
65656;SDS011;57397;50.096;14.404;2023-02-28T15:58:58;9.45;;;5.68;;
65656;SDS011;57397;50.096;14.404;2023-02-28T16:03:57;9.38;;;5.80;;
65656;SDS011;57397;50.096;14.404;2023-02-28T16:06:38;8.85;;;5.50;;
65656;SDS011;57397;50.096;14.404;2023-02-28T16:09:07;7.60;;;5.28;;
65656;SDS011;57397;50.096;14.404;2023-02-28T16:11:37;8.77;;;5.35;;
65656;SDS011;57397;50.096;14.404;2023-02-28T16:14:04;8.00;;;5.43;;
65656;SDS011;57397;50.096;14.404;2023-02-28T16:16:30;8.32;;;5.47;;
65656;SDS011;57397;50.096;14.404;2023-02-28T16:18:56;9.70;;;5.45;;
65656;SDS011;57397;50.096;14.404;2023-02-28T16:21:25;8.98;;;4.93;;
65656;SDS011;57397;50.096;14.404;2023-02-28T16:23:51;8.30;;;4.90;;
65656;SDS011;57397;50.096;14.404;2023-02-28T16:26:18;7.22;;;5.15;;
65656;SDS011;57397;50.096;14.404;2023-02-28T16:28:46;7.85;;;4.72;;
65656;SDS011;57397;50.096;14.404;2023-02-28T16:31:12;8.88;;;5.22;;
65656;SDS011;57397;50.096;14.404;2023-02-28T16:33:41;9.05;;;5.00;;
65656;SDS011;57397;50.096;14.404;2023-02-28T16:36:16;8.75;;;5.10;;
65656;SDS011;57397;50.096;14.404;2023-02-28T16:38:42;8.98;;;5.57;;
65656;SDS011;57397;50.096;14.404;2023-02-28T16:41:10;7.90;;;5.00;;
65656;SDS011;57397;50.096;14.404;2023-02-28T16:43:41;9.18;;;5.20;;
65656;SDS011;57397;50.096;14.404;2023-02-28T16:46:08;7.60;;;5.03;;
65656;SDS011;57397;50.096;14.404;2023-02-28T16:48:36;8.93;;;5.30;;
65656;SDS011;57397;50.096;14.404;2023-02-28T16:51:02;8.52;;;5.28;;
65656;SDS011;57397;50.096;14.404;2023-02-28T16:53:29;7.82;;;5.25;;
65656;SDS011;57397;50.096;14.404;2023-02-28T16:55:55;10.52;;;5.82;;
65656;SDS011;57397;50.096;14.404;2023-02-28T16:58:20;8.77;;;5.10;;
65656;SDS011;57397;50.096;14.404;2023-02-28T17:00:48;8.40;;;5.53;;
65656;SDS011;57397;50.096;14.404;2023-02-28T17:03:24;8.70;;;5.65;;
65656;SDS011;57397;50.096;14.404;2023-02-28T17:05:51;9.60;;;5.35;;
65656;SDS011;57397;50.096;14.404;2023-02-28T17:08:17;7.72;;;5.15;;
65656;SDS011;57397;50.096;14.404;2023-02-28T17:10:42;9.30;;;6.10;;
65656;SDS011;57397;50.096;14.404;2023-02-28T17:13:08;10.05;;;5.93;;
65656;SDS011;57397;50.096;14.404;2023-02-28T17:15:34;9.05;;;6.05;;
65656;SDS011;57397;50.096;14.404;2023-02-28T17:18:00;11.77;;;5.80;;
65656;SDS011;57397;50.096;14.404;2023-02-28T17:20:26;10.02;;;6.57;;
65656;SDS011;57397;50.096;14.404;2023-02-28T17:22:52;10.18;;;6.47;;
65656;SDS011;57397;50.096;14.404;2023-02-28T17:25:18;10.77;;;6.13;;